Time;durP1;ratioP1;P1;durP2;ratioP2;P2;SDS_P1;SDS_P2;PMS_P1;PMS_P2;Temp;Humidity;BMP_temperature;BMP_pressure;BME280_temperature;BME280_humidity;BME280_pressure;Samples;Min_cycle;Max_cycle;Signal;HPM_P1;HPM_P2
2024/04/03 00:00:38;;;;;;;17.15;7.88;;;;;;;8.32;100.00;100476.44;6082601;23;20065;-73
2024/04/03 00:03:05;;;;;;;15.48;7.88;;;;;;;8.28;100.00;100472.72;6057133;23;20397;-73
2024/04/03 00:05:31;;;;;;;20.45;8.10;;;;;;;8.27;100.00;100471.09;6084888;23;20010;-74
2024/04/03 00:08:00;;;;;;;17.02;6.97;;;;;;;8.28;100.00;100474.59;6035063;23;20022;-72
2024/04/03 00:10:25;;;;;;;18.17;9.77;;;;;;;8.26;100.00;100490.03;6060070;23;20049;-73
2024/04/03 00:12:51;;;;;;;24.10;11.13;;;;;;;8.22;100.00;100481.75;6083674;23;20397;-74
2024/04/03 00:15:17;;;;;;;22.13;11.45;;;;;;;8.17;100.00;100482.53;6056994;23;20268;-73
2024/04/03 00:17:42;;;;;;;22.23;10.25;;;;;;;8.15;100.00;100481.19;6059041;23;20780;-73
2024/04/03 00:20:09;;;;;;;22.45;11.45;;;;;;;8.13;100.00;100478.00;6082986;23;20045;-74
2024/04/03 00:22:35;;;;;;;21.13;11.52;;;;;;;8.11;100.00;100486.22;6059439;23;20028;-74
2024/04/03 00:25:01;;;;;;;24.70;10.85;;;;;;;8.11;100.00;100488.88;6035227;23;20010;-74
2024/04/03 00:27:27;;;;;;;27.17;11.35;;;;;;;8.12;100.00;100492.34;6059336;23;20029;-74
2024/04/03 00:29:53;;;;;;;20.90;9.60;;;;;;;8.09;100.00;100488.34;6036490;23;20018;-75
2024/04/03 00:32:19;;;;;;;19.45;9.80;;;;;;;8.07;100.00;100487.81;6035865;23;20279;-75
2024/04/03 00:34:45;;;;;;;19.55;9.00;;;;;;;8.00;100.00;100483.78;6059600;23;20121;-73
2024/04/03 00:37:11;;;;;;;21.95;11.07;;;;;;;8.01;100.00;100478.19;6082834;23;20021;-75
2024/04/03 00:39:37;;;;;;;22.20;10.05;;;;;;;7.98;100.00;100480.56;6059598;23;20036;-74
2024/04/03 00:42:03;;;;;;;22.13;9.48;;;;;;;8.01;100.00;100480.06;6034195;23;20018;-74
2024/04/03 00:44:28;;;;;;;25.88;10.43;;;;;;;7.97;100.00;100478.94;6058604;23;20014;-74
2024/04/03 00:46:54;;;;;;;20.35;10.35;;;;;;;7.94;100.00;100481.06;6067821;23;20449;-74
2024/04/03 00:49:21;;;;;;;16.23;9.38;;;;;;;7.88;100.00;100489.31;6106042;23;20010;-74
2024/04/03 00:51:48;;;;;;;15.73;8.85;;;;;;;7.88;100.00;100479.44;6108746;23;20018;-74
2024/04/03 00:54:16;;;;;;;17.17;9.90;;;;;;;7.88;100.00;100484.78;6084268;23;20014;-75
2024/04/03 00:56:43;;;;;;;16.23;8.48;;;;;;;7.82;100.00;100483.13;6083251;23;20018;-74
2024/04/03 00:59:10;;;;;;;17.08;9.25;;;;;;;7.86;100.00;100483.44;6081497;23;20022;-74
2024/04/03 01:01:35;;;;;;;15.45;8.82;;;;;;;7.85;100.00;100471.94;6081420;23;20485;-74
2024/04/03 01:04:01;;;;;;;14.27;8.70;;;;;;;7.86;100.00;100478.09;6082034;23;20919;-74
2024/04/03 01:06:29;;;;;;;16.92;9.45;;;;;;;7.86;100.00;100486.09;6107330;23;20024;-74
2024/04/03 01:08:55;;;;;;;16.30;8.35;;;;;;;7.79;100.00;100486.31;6085005;23;20113;-75
2024/04/03 01:11:21;;;;;;;14.27;8.55;;;;;;;7.78;100.00;100483.91;6080807;23;20042;-74
2024/04/03 01:13:46;;;;;;;14.57;8.52;;;;;;;7.77;100.00;100482.28;6106498;23;20022;-75
2024/04/03 01:16:12;;;;;;;13.30;8.95;;;;;;;7.74;100.00;100482.81;6083702;23;20702;-75
2024/04/03 01:18:37;;;;;;;14.60;8.68;;;;;;;7.70;100.00;100477.19;6106401;23;20018;-74
2024/04/03 01:21:03;;;;;;;12.48;7.68;;;;;;;7.68;100.00;100476.66;6081958;23;20026;-75
2024/04/03 01:23:29;;;;;;;16.70;8.35;;;;;;;7.67;100.00;100480.38;6082779;23;20028;-75
2024/04/03 01:25:55;;;;;;;9.60;6.13;;;;;;;7.59;100.00;100478.19;6081682;23;20033;-75
2024/04/03 01:28:22;;;;;;;12.25;6.72;;;;;;;7.55;100.00;100477.09;6080810;23;20069;-74
2024/04/03 01:30:49;;;;;;;11.00;5.68;;;;;;;7.50;100.00;100475.19;6081890;23;20485;-75
2024/04/03 01:33:15;;;;;;;8.75;5.22;;;;;;;7.46;100.00;100468.78;6078919;23;20022;-74
2024/04/03 01:35:41;;;;;;;8.77;5.57;;;;;;;7.45;100.00;100477.84;6056381;23;20014;-74
2024/04/03 01:38:06;;;;;;;11.32;6.20;;;;;;;7.40;100.00;100483.13;6081425;23;20045;-75
2024/04/03 01:40:32;;;;;;;11.70;5.45;;;;;;;7.38;100.00;100480.72;6081808;23;20050;-75
2024/04/03 01:42:58;;;;;;;12.45;6.50;;;;;;;7.34;100.00;100471.59;6105588;23;20017;-75
2024/04/03 01:45:24;;;;;;;12.30;5.72;;;;;;;7.32;100.00;100481.72;6105112;23;20556;-75
2024/04/03 01:47:50;;;;;;;10.73;6.32;;;;;;;7.34;100.00;100482.25;6079444;23;20512;-77
2024/04/03 01:50:20;;;;;;;11.90;6.22;;;;;;;7.32;100.00;100484.38;6085920;23;20014;-74
2024/04/03 01:52:47;;;;;;;11.65;6.93;;;;;;;7.31;100.00;100490.75;6108657;23;20033;-74
2024/04/03 01:55:14;;;;;;;12.57;7.53;;;;;;;7.28;100.00;100493.94;6105389;23;20022;-75
2024/04/03 01:57:40;;;;;;;12.15;6.28;;;;;;;7.26;100.00;100489.94;6085391;23;20014;-75
2024/04/03 02:00:07;;;;;;;9.75;6.38;;;;;;;7.25;100.00;100486.47;6084235;23;20022;-75
2024/04/03 02:02:33;;;;;;;12.35;6.50;;;;;;;7.17;100.00;100486.91;6086219;23;20014;-75
2024/04/03 02:05:00;;;;;;;11.15;6.72;;;;;;;7.19;100.00;100489.34;6085203;23;20048;-75
2024/04/03 02:07:25;;;;;;;10.82;6.00;;;;;;;7.20;100.00;100497.06;6084080;23;20324;-74
2024/04/03 02:09:51;;;;;;;11.27;6.32;;;;;;;7.20;100.00;100494.41;6084161;23;20018;-75
2024/04/03 02:12:19;;;;;;;10.40;7.13;;;;;;;7.20;100.00;100483.75;6108232;23;20353;-74
2024/04/03 02:14:45;;;;;;;13.55;7.10;;;;;;;7.19;100.00;100490.13;6061355;23;20057;-74
2024/04/03 02:17:10;;;;;;;11.60;7.03;;;;;;;7.19;100.00;100498.13;6108128;23;20818;-74
2024/04/03 02:19:36;;;;;;;11.30;6.85;;;;;;;7.16;100.00;100495.94;6109496;23;20018;-75
2024/04/03 02:22:02;;;;;;;12.68;8.00;;;;;;;7.14;100.00;100490.06;6060767;23;20150;-75
2024/04/03 02:24:28;;;;;;;20.95;7.43;;;;;;;7.11;100.00;100493.22;6108312;23;20014;-74
2024/04/03 02:26:54;;;;;;;10.63;6.55;;;;;;;7.11;100.00;100509.22;6085185;23;20014;-75
2024/04/03 02:29:19;;;;;;;12.18;6.93;;;;;;;7.11;100.00;100509.22;6083496;23;20022;-75
2024/04/03 02:31:45;;;;;;;13.15;6.80;;;;;;;7.12;100.00;100508.19;6085075;23;20018;-74
2024/04/03 02:34:10;;;;;;;13.80;8.05;;;;;;;7.10;100.00;100507.59;6083805;23;20018;-74
2024/04/03 02:36:36;;;;;;;14.32;7.65;;;;;;;7.10;100.00;100512.94;6109461;23;20052;-74
2024/04/03 02:39:02;;;;;;;14.23;7.28;;;;;;;7.06;100.00;100515.31;6108292;23;20018;-74
2024/04/03 02:41:28;;;;;;;13.38;7.47;;;;;;;7.04;100.00;100512.06;6083561;23;20011;-74
2024/04/03 02:43:55;;;;;;;13.80;7.45;;;;;;;7.01;100.00;100519.78;6108823;23;20022;-74
2024/04/03 02:46:20;;;;;;;16.85;8.60;;;;;;;6.97;100.00;100510.66;6082976;23;20394;-74
2024/04/03 02:48:46;;;;;;;12.75;7.38;;;;;;;6.97;100.00;100510.66;6035772;23;20074;-74
2024/04/03 02:51:12;;;;;;;11.50;6.80;;;;;;;6.98;100.00;100510.44;6083545;23;20429;-74
2024/04/03 02:53:38;;;;;;;11.75;7.53;;;;;;;6.96;100.00;100507.19;6060259;23;20457;-74
2024/04/03 02:56:05;;;;;;;18.08;7.20;;;;;;;6.93;100.00;100514.91;6084484;23;20761;-74
2024/04/03 02:58:32;;;;;;;11.10;6.95;;;;;;;6.92;100.00;100514.09;6060458;23;20361;-74
2024/04/03 03:01:08;;;;;;;12.30;7.55;;;;;;;6.82;100.00;100503.34;6059914;23;20070;-74
2024/04/03 03:03:34;;;;;;;15.88;7.43;;;;;;;6.76;100.00;100507.00;6035148;23;20046;-75
2024/04/03 03:06:02;;;;;;;12.98;6.95;;;;;;;6.68;100.00;100504.78;6062769;23;20018;-74
2024/04/03 03:08:29;;;;;;;12.73;7.82;;;;;;;6.68;100.00;100499.47;6061220;23;20026;-74
2024/04/03 03:10:56;;;;;;;11.85;6.50;;;;;;;6.67;100.00;100498.66;6061536;23;20628;-74
2024/04/03 03:13:24;;;;;;;12.50;7.60;;;;;;;6.66;100.00;100510.34;6061906;23;20023;-74
2024/04/03 03:15:51;;;;;;;13.90;6.63;;;;;;;6.63;100.00;100510.84;6014916;23;20022;-75
2024/04/03 03:18:17;;;;;;;12.23;7.13;;;;;;;6.56;100.00;100512.88;6036501;23;20026;-75
2024/04/03 03:20:47;;;;;;;11.52;5.95;;;;;;;6.51;100.00;100502.22;6062391;23;20393;-74
2024/04/03 03:23:13;;;;;;;12.18;6.50;;;;;;;6.51;100.00;100520.84;6061837;23;20014;-74
2024/04/03 03:25:39;;;;;;;11.57;5.75;;;;;;;6.50;100.00;100516.53;6062408;23;20476;-75
2024/04/03 03:28:05;;;;;;;8.57;6.22;;;;;;;6.46;100.00;100512.78;6087194;23;20018;-74
2024/04/03 03:30:30;;;;;;;10.13;5.65;;;;;;;6.46;100.00;100504.81;6061332;23;20038;-74
2024/04/03 03:32:56;;;;;;;9.07;6.20;;;;;;;6.48;100.00;100500.03;6061475;23;20018;-74
2024/04/03 03:35:22;;;;;;;12.70;6.20;;;;;;;6.47;100.00;100507.19;6037768;23;20011;-74
2024/04/03 03:37:47;;;;;;;11.15;5.05;;;;;;;6.45;100.00;100508.50;6086850;23;20149;-75
2024/04/03 03:40:14;;;;;;;;;;;;;;;6.45;100.00;100505.84;6087195;23;20061;-74
2024/04/03 03:42:39;;;;;;;7.70;4.97;;;;;;;6.41;100.00;100510.06;6086555;23;19913;-74
2024/04/03 03:45:06;;;;;;;8.02;4.80;;;;;;;6.37;100.00;100511.59;6062507;23;20015;-74
2024/04/03 03:47:32;;;;;;;8.65;4.95;;;;;;;6.38;100.00;100507.91;6071040;23;20014;-74
2024/04/03 03:52:44;;;;;;;7.57;4.90;;;;;;;6.37;100.00;100511.59;6086014;23;20019;-74
2024/04/03 03:55:09;;;;;;;6.80;4.20;;;;;;;6.31;100.00;100496.63;6109392;23;20098;-74
2024/04/03 03:57:35;;;;;;;8.80;5.63;;;;;;;6.33;100.00;100502.50;6061136;23;20015;-74
2024/04/03 04:00:01;;;;;;;9.10;5.13;;;;;;;6.29;100.00;100502.97;6087029;23;20706;-74
2024/04/03 04:02:26;;;;;;;8.02;5.32;;;;;;;6.32;100.00;100500.91;6087262;23;20653;-74
2024/04/03 04:04:52;;;;;;;7.25;5.38;;;;;;;6.33;100.00;100507.81;6083524;23;20022;-74
2024/04/03 04:07:22;;;;;;;9.55;5.80;;;;;;;6.31;100.00;100512.59;6086510;23;20010;-74
2024/04/03 04:09:52;;;;;;;8.73;4.80;;;;;;;6.28;100.00;100520.00;6062684;23;20110;-74
2024/04/03 04:12:19;;;;;;;7.05;4.10;;;;;;;6.29;100.00;100513.63;6037307;23;20011;-74
2024/04/03 04:14:49;;;;;;;7.40;4.63;;;;;;;6.26;100.00;100522.09;6087073;23;20022;-75
2024/04/03 04:17:15;;;;;;;6.00;4.20;;;;;;;6.24;100.00;100516.25;6108193;23;20045;-75
2024/04/03 04:19:41;;;;;;;5.10;4.10;;;;;;;6.24;100.00;100521.56;6087182;23;20021;-74
2024/04/03 04:22:07;;;;;;;6.88;4.68;;;;;;;6.24;100.00;100524.22;6087766;23;20021;-75
2024/04/03 04:24:36;;;;;;;9.02;4.60;;;;;;;6.23;100.00;100525.28;6085246;23;20437;-74
2024/04/03 04:27:04;;;;;;;6.45;4.72;;;;;;;6.18;100.00;100530.50;6109587;23;20018;-75
2024/04/03 04:29:31;;;;;;;7.60;4.90;;;;;;;6.12;100.00;100523.50;6084791;23;20093;-74
2024/04/03 04:32:00;;;;;;;7.75;5.30;;;;;;;6.13;100.00;100532.28;6087607;23;20085;-74
2024/04/03 04:34:27;;;;;;;8.40;5.90;;;;;;;6.12;100.00;100534.16;6075945;23;20544;-74
2024/04/03 04:36:52;;;;;;;9.95;5.32;;;;;;;6.10;100.00;100546.09;6084621;23;20018;-74
2024/04/03 04:39:19;;;;;;;8.63;4.78;;;;;;;6.08;100.00;100543.66;6108951;23;20018;-74
2024/04/03 04:41:49;;;;;;;7.57;4.97;;;;;;;6.11;100.00;100540.53;6087435;23;20014;-74
2024/04/03 04:44:18;;;;;;;8.75;5.38;;;;;;;6.09;100.00;100539.13;6085598;23;20444;-74
2024/04/03 04:46:52;;;;;;;7.30;4.93;;;;;;;6.09;100.00;100545.25;6084645;23;20113;-74
2024/04/03 04:49:19;;;;;;;8.13;5.28;;;;;;;6.07;100.00;100558.00;6082213;23;20019;-74
2024/04/03 04:51:48;;;;;;;8.68;5.03;;;;;;;6.03;100.00;100562.22;6109326;23;20044;-74
2024/04/03 04:54:15;;;;;;;7.60;5.57;;;;;;;6.02;100.00;100565.88;6082383;23;20018;-74
2024/04/03 04:56:42;;;;;;;5.20;3.95;;;;;;;5.93;100.00;100562.03;6086033;23;20018;-75
2024/04/03 04:59:08;;;;;;;5.68;3.50;;;;;;;5.83;100.00;100561.88;6059748;23;20077;-74
2024/04/03 05:01:38;;;;;;;5.70;4.47;;;;;;;5.74;100.00;100558.78;6059415;23;20121;-74
2024/04/03 05:04:06;;;;;;;5.22;4.15;;;;;;;5.69;100.00;100554.22;6082729;23;20117;-74
2024/04/03 05:06:32;;;;;;;4.50;3.47;;;;;;;5.58;100.00;100552.44;6084468;23;20215;-74
2024/04/03 05:08:58;;;;;;;5.22;3.75;;;;;;;5.54;100.00;100553.94;6084539;23;20088;-74
2024/04/03 05:11:24;;;;;;;4.68;3.55;;;;;;;5.54;100.00;100564.56;6083136;23;20021;-74
2024/04/03 05:13:50;;;;;;;5.07;3.67;;;;;;;5.53;100.00;100559.50;6084715;23;20345;-74
2024/04/03 05:16:20;;;;;;;5.22;3.88;;;;;;;5.48;100.00;100555.72;6081772;23;20507;-74
2024/04/03 05:18:51;;;;;;;4.90;3.75;;;;;;;5.37;100.00;100561.91;6109895;23;20100;-74
2024/04/03 05:21:17;;;;;;;5.95;4.18;;;;;;;5.34;100.00;100570.34;6084291;23;20771;-74
2024/04/03 05:23:45;;;;;;;5.72;4.30;;;;;;;5.33;100.00;100573.25;6084534;23;20014;-74
2024/04/03 05:26:12;;;;;;;6.18;4.30;;;;;;;5.33;100.00;100567.94;6085438;23;20068;-74
2024/04/03 05:28:38;;;;;;;5.18;4.00;;;;;;;5.30;100.00;100565.78;6107823;23;20014;-74
2024/04/03 05:31:09;;;;;;;5.93;4.13;;;;;;;5.32;100.00;100563.69;6085658;23;20022;-74
2024/04/03 05:33:37;;;;;;;5.68;4.45;;;;;;;5.32;100.00;100566.34;6085426;23;20019;-74
2024/04/03 05:36:07;;;;;;;6.47;4.88;;;;;;;5.29;100.00;100556.19;6060630;23;20042;-74
2024/04/03 05:38:34;;;;;;;5.68;4.15;;;;;;;5.23;100.00;100544.69;6107590;23;20136;-74
2024/04/03 05:41:00;;;;;;;6.30;4.10;;;;;;;5.15;100.00;100561.81;6084186;23;20014;-73
2024/04/03 05:43:26;;;;;;;;;;;;;;;5.10;100.00;100559.03;6085262;23;20022;-74
2024/04/03 05:45:55;;;;;;;6.38;3.75;;;;;;;5.14;100.00;100560.16;6084394;23;19924;-74
2024/04/03 05:48:24;;;;;;;5.00;3.45;;;;;;;5.14;100.00;100565.47;6083208;23;20014;-74
2024/04/03 05:51:04;;;;;;;6.35;3.35;;;;;;;5.08;100.00;100563.78;6085058;23;20018;-74
2024/04/03 05:53:31;;;;;;;5.55;3.97;;;;;;;4.98;100.00;100568.91;6059362;23;20460;-73
2024/04/03 05:55:58;;;;;;;6.10;4.15;;;;;;;4.93;100.00;100572.25;6109186;23;20133;-74
2024/04/03 05:58:24;;;;;;;6.40;4.15;;;;;;;4.97;100.00;100569.13;6107706;23;20010;-74
2024/04/03 06:00:55;;;;;;;5.45;3.80;;;;;;;4.97;100.00;100575.25;6083652;23;20014;-75
2024/04/03 06:03:21;;;;;;;5.57;3.58;;;;;;;4.91;100.00;100576.19;6083598;23;20101;-74
2024/04/03 06:05:58;;;;;;;5.72;3.65;;;;;;;4.90;100.00;100585.19;6084851;23;20022;-75
2024/04/03 06:08:25;;;;;;;6.57;3.78;;;;;;;4.91;100.00;100581.50;6059995;23;20022;-75
2024/04/03 06:10:51;;;;;;;6.90;3.63;;;;;;;4.95;100.00;100585.31;6059800;23;20022;-74
2024/04/03 06:13:17;;;;;;;5.75;3.67;;;;;;;4.97;100.00;100580.56;6084601;23;20105;-75
2024/04/03 06:15:44;;;;;;;5.97;3.97;;;;;;;4.95;100.00;100577.34;6081124;23;20015;-75
2024/04/03 06:18:11;;;;;;;6.50;4.00;;;;;;;4.98;100.00;100574.22;6083622;23;20203;-74
2024/04/03 06:20:37;;;;;;;6.75;4.25;;;;;;;5.04;100.00;100575.13;6085319;23;20026;-75
2024/04/03 06:23:04;;;;;;;6.97;4.45;;;;;;;4.99;100.00;100578.47;6084999;23;20019;-74
2024/04/03 06:25:30;;;;;;;5.97;4.18;;;;;;;5.00;100.00;100585.38;6084493;23;20645;-75
2024/04/03 06:27:56;;;;;;;8.30;4.35;;;;;;;5.07;100.00;100588.69;6084080;23;20014;-74
2024/04/03 06:30:23;;;;;;;6.20;4.25;;;;;;;5.11;100.00;100587.19;6084105;23;20018;-75
2024/04/03 06:32:49;;;;;;;6.50;4.50;;;;;;;5.13;100.00;100577.13;6083615;23;20022;-74
2024/04/03 06:35:15;;;;;;;6.55;4.20;;;;;;;5.08;100.00;100587.69;6083512;23;20011;-75
2024/04/03 06:37:40;;;;;;;7.65;4.85;;;;;;;5.05;100.00;100585.50;6106842;23;20037;-75
2024/04/03 06:40:10;;;;;;;6.50;4.30;;;;;;;5.05;100.00;100577.53;6107422;23;20468;-75
2024/04/03 06:42:36;;;;;;;6.80;4.68;;;;;;;5.04;100.00;100586.53;6083175;23;20038;-74
2024/04/03 06:45:03;;;;;;;6.55;4.40;;;;;;;5.04;100.00;100586.53;6059728;23;20025;-74
2024/04/03 06:47:29;;;;;;;5.90;4.28;;;;;;;5.08;100.00;100586.84;6082679;23;20022;-74
2024/04/03 06:49:56;;;;;;;5.78;3.90;;;;;;;5.10;100.00;100590.91;6107708;23;20093;-74
2024/04/03 06:52:25;;;;;;;5.55;3.70;;;;;;;5.10;100.00;100580.28;6085332;23;20018;-75
2024/04/03 06:54:54;;;;;;;5.47;4.00;;;;;;;5.17;100.00;100591.56;6058841;23;20042;-74
2024/04/03 06:57:24;;;;;;;5.00;3.80;;;;;;;5.15;100.00;100588.34;6084978;23;20011;-75
2024/04/03 06:59:50;;;;;;;5.00;3.47;;;;;;;5.16;100.00;100586.50;6085971;23;20018;-75
2024/04/03 07:02:16;;;;;;;4.45;3.20;;;;;;;5.11;100.00;100573.94;6059678;23;20022;-74
2024/04/03 07:04:43;;;;;;;4.53;3.50;;;;;;;5.11;100.00;100579.22;6081871;23;20736;-75
2024/04/03 07:07:10;;;;;;;5.55;4.00;;;;;;;5.09;100.00;100576.03;6082895;23;20445;-75
2024/04/03 07:09:36;;;;;;;5.95;4.43;;;;;;;5.13;100.00;100577.13;6082692;23;20378;-75
2024/04/03 07:12:03;;;;;;;;;;;;;;;5.09;100.00;100578.69;6108893;23;20027;-74
2024/04/03 07:14:29;;;;;;;4.60;3.05;;;;;;;5.14;100.00;100576.09;6058179;23;20536;-74
2024/04/03 07:16:54;;;;;;;4.60;3.45;;;;;;;5.13;100.00;100579.78;6060170;23;20049;-74
2024/04/03 07:19:20;;;;;;;4.65;3.45;;;;;;;5.16;100.00;100579.34;6107324;23;20014;-74
2024/04/03 07:21:46;;;;;;;3.55;2.60;;;;;;;5.13;100.00;100574.50;6084033;23;20010;-75
2024/04/03 07:24:12;;;;;;;5.15;3.83;;;;;;;5.15;100.00;100583.03;6106034;23;20014;-74
2024/04/03 07:26:38;;;;;;;5.35;4.03;;;;;;;5.11;100.00;100578.44;6107225;23;20021;-74
2024/04/03 07:29:04;;;;;;;4.43;3.13;;;;;;;5.20;100.00;100588.41;6085831;23;20098;-74
2024/04/03 07:31:29;;;;;;;4.43;3.15;;;;;;;5.23;100.00;100594.31;6107494;23;20014;-73
2024/04/03 07:33:55;;;;;;;4.88;3.78;;;;;;;5.22;100.00;100587.41;6083517;23;20021;-75
2024/04/03 07:36:23;;;;;;;4.85;3.38;;;;;;;5.27;100.00;100600.75;6083802;23;20251;-75
2024/04/03 07:38:48;;;;;;;4.90;3.67;;;;;;;5.28;100.00;100597.03;6081908;23;20436;-74
2024/04/03 07:41:32;;;;;;;5.53;3.90;;;;;;;5.32;100.00;100590.22;6108366;23;20015;-74
2024/04/03 07:43:58;;;;;;;5.40;3.97;;;;;;;5.34;100.00;100591.59;6059780;23;20014;-74
2024/04/03 07:46:23;;;;;;;5.28;3.85;;;;;;;5.37;100.00;100606.25;6083335;23;20018;-75
2024/04/03 07:48:49;;;;;;;4.70;3.40;;;;;;;5.44;100.00;100596.28;6034919;23;20499;-74
2024/04/03 07:51:15;;;;;;;5.25;3.78;;;;;;;5.51;100.00;100596.16;6035719;23;20018;-75
2024/04/03 07:53:40;;;;;;;5.57;4.22;;;;;;;5.58;100.00;100602.09;6060821;23;20026;-75
2024/04/03 07:56:06;;;;;;;4.85;3.90;;;;;;;5.60;100.00;100595.50;6085329;23;20019;-74
2024/04/03 07:58:32;;;;;;;5.65;4.28;;;;;;;5.63;100.00;100595.03;6060773;23;20022;-74
2024/04/03 08:01:01;;;;;;;6.45;4.38;;;;;;;5.70;100.00;100594.88;6037399;23;20025;-73
2024/04/03 08:03:27;;;;;;;5.60;3.63;;;;;;;5.79;100.00;100597.94;6060246;23;20460;-75
2024/04/03 08:05:54;;;;;;;5.80;3.63;;;;;;;5.73;100.00;100592.53;6058496;23;20086;-74
2024/04/03 08:08:22;;;;;;;5.55;3.83;;;;;;;5.78;100.00;100585.69;6058944;23;20018;-74
2024/04/03 08:10:48;;;;;;;6.13;3.80;;;;;;;5.77;100.00;100595.53;6035290;23;20018;-74
2024/04/03 08:13:13;;;;;;;4.95;3.90;;;;;;;5.83;100.00;100599.88;6060193;23;20703;-74
2024/04/03 08:15:39;;;;;;;5.68;4.05;;;;;;;5.90;100.00;100597.06;6059435;23;20014;-75
2024/04/03 08:18:04;;;;;;;6.40;4.38;;;;;;;6.00;100.00;100591.91;6059414;23;20014;-74
2024/04/03 08:20:32;;;;;;;5.40;4.00;;;;;;;6.08;100.00;100596.81;6036283;23;20570;-74
2024/04/03 08:22:58;;;;;;;6.00;3.83;;;;;;;6.06;100.00;100590.16;6086407;23;20014;-74
2024/04/03 08:25:24;;;;;;;7.43;4.47;;;;;;;6.16;100.00;100600.91;6085100;23;20107;-75
2024/04/03 08:27:52;;;;;;;6.80;4.28;;;;;;;6.22;100.00;100586.66;6059782;23;20513;-75
2024/04/03 08:30:23;;;;;;;6.93;4.47;;;;;;;6.27;100.00;100600.84;6062913;23;20073;-74
2024/04/03 08:32:48;;;;;;;6.15;4.55;;;;;;;6.23;100.00;100594.41;6014598;23;20025;-74
2024/04/03 08:35:14;;;;;;;6.10;4.80;;;;;;;6.29;100.00;100595.25;6062549;23;20015;-74
2024/04/03 08:37:40;;;;;;;6.60;4.90;;;;;;;6.25;100.00;100591.50;6036448;23;20022;-74
2024/04/03 08:40:10;;;;;;;7.03;4.78;;;;;;;6.28;100.00;100591.81;6085801;23;20022;-75
2024/04/03 08:42:36;;;;;;;6.60;4.68;;;;;;;6.34;100.00;100594.53;6085202;23;20010;-74
2024/04/03 08:45:04;;;;;;;6.63;4.63;;;;;;;6.42;100.00;100599.44;6083812;23;20586;-75
2024/04/03 08:47:30;;;;;;;9.18;4.65;;;;;;;6.49;100.00;100602.72;6070068;23;20471;-74
2024/04/03 08:49:55;;;;;;;10.75;4.80;;;;;;;6.45;100.00;100601.63;6108961;23;20105;-74
2024/04/03 08:52:26;;;;;;;7.60;5.20;;;;;;;6.41;100.00;100600.50;6060230;23;20018;-74
2024/04/03 08:54:54;;;;;;;7.38;4.80;;;;;;;6.50;100.00;100609.66;6083773;23;20018;-74
2024/04/03 08:57:22;;;;;;;6.50;4.68;;;;;;;6.58;100.00;100601.28;6083880;23;20041;-75
2024/04/03 08:59:48;;;;;;;8.45;5.20;;;;;;;6.52;100.00;100602.25;6083312;23;20006;-74
2024/04/03 09:02:14;;;;;;;6.70;4.63;;;;;;;6.57;100.00;100602.31;6082568;23;20014;-74
2024/04/03 09:04:40;;;;;;;7.78;5.35;;;;;;;6.57;100.00;100604.97;6085916;23;20038;-74
2024/04/03 09:07:08;;;;;;;7.88;5.43;;;;;;;6.64;100.00;100608.28;6087191;23;20030;-75
2024/04/03 09:09:36;;;;;;;7.40;5.10;;;;;;;6.62;100.00;100612.22;6061542;23;20528;-74
2024/04/03 09:12:06;;;;;;;7.25;5.15;;;;;;;6.64;100.00;100605.59;6085913;23;20022;-75
2024/04/03 09:14:34;;;;;;;7.57;5.05;;;;;;;6.63;100.00;100611.97;6061324;23;20019;-74
2024/04/03 09:17:01;;;;;;;10.10;5.40;;;;;;;6.51;100.00;100611.28;6087430;23;20019;-74
2024/04/03 09:19:28;;;;;;;7.35;5.15;;;;;;;6.67;100.00;100605.09;6108326;23;20015;-74
2024/04/03 09:21:58;;;;;;;7.75;5.38;;;;;;;6.73;100.00;100606.78;6086343;23;20011;-74
2024/04/03 09:24:24;;;;;;;8.35;5.30;;;;;;;6.76;100.00;100608.94;6084282;23;20049;-75
2024/04/03 09:26:51;;;;;;;8.15;5.63;;;;;;;6.86;100.00;100599.47;6085196;23;20058;-74
2024/04/03 09:29:18;;;;;;;7.72;5.50;;;;;;;6.93;100.00;100603.56;6085133;23;20026;-74
2024/04/03 09:31:45;;;;;;;8.25;5.47;;;;;;;6.89;100.00;100601.63;6085598;23;20022;-74
2024/04/03 09:34:11;;;;;;;7.07;5.03;;;;;;;6.94;100.00;100604.38;6061777;23;20619;-74
2024/04/03 09:36:38;;;;;;;6.72;5.10;;;;;;;6.84;100.00;100600.53;6085011;23;20017;-74
2024/04/03 09:39:04;;;;;;;7.45;5.70;;;;;;;6.97;100.00;100595.88;6108837;23;20018;-74
2024/04/03 09:41:31;;;;;;;7.70;4.78;;;;;;;7.00;100.00;100590.06;6109751;23;20073;-74
2024/04/03 09:44:02;;;;;;;7.40;5.47;;;;;;;6.98;100.00;100594.84;6084625;23;20114;-74
2024/04/03 09:46:51;;;;;;;7.95;5.30;;;;;;;7.01;100.00;100594.31;6109809;23;20492;-74
2024/04/03 09:49:23;;;;;;;9.02;5.63;;;;;;;7.08;100.00;100600.25;6036912;23;20473;-74
2024/04/03 09:51:50;;;;;;;8.40;5.63;;;;;;;7.11;100.00;100594.41;6061027;23;20018;-74
2024/04/03 09:54:17;;;;;;;8.85;6.53;;;;;;;7.08;100.00;100594.94;6012507;23;20028;-74
2024/04/03 09:56:43;;;;;;;8.27;5.70;;;;;;;7.19;100.00;100593.19;6037441;23;20018;-74
2024/04/03 09:59:11;;;;;;;9.20;6.05;;;;;;;7.24;100.00;100588.72;6037314;23;20073;-74
2024/04/03 10:01:37;;;;;;;7.80;5.60;;;;;;;7.28;100.00;100592.50;6084773;23;20018;-75
2024/04/03 10:04:04;;;;;;;8.43;5.38;;;;;;;7.31;100.00;100594.63;6036229;23;20053;-74
2024/04/03 10:06:35;;;;;;;10.10;6.50;;;;;;;7.39;100.00;100590.75;6060527;23;20053;-74
2024/04/03 10:09:31;;;;;;;11.15;6.70;;;;;;;7.43;100.00;100591.03;6035660;23;20022;-74
2024/04/03 10:11:59;;;;;;;9.77;6.55;;;;;;;7.40;100.00;100587.00;6033074;23;20025;-74
2024/04/03 10:14:29;;;;;;;8.73;5.53;;;;;;;7.50;100.00;100580.97;6085097;23;20473;-74
2024/04/03 10:16:56;;;;;;;10.50;6.32;;;;;;;7.50;100.00;100586.28;6084283;23;20010;-74
2024/04/03 10:19:24;;;;;;;8.90;5.93;;;;;;;7.56;100.00;100585.28;6084212;23;20015;-74
2024/04/03 10:21:50;;;;;;;9.05;6.68;;;;;;;7.69;100.00;100587.53;6086580;23;20018;-74
2024/04/03 10:24:19;;;;;;;8.60;6.25;;;;;;;7.59;100.00;100590.13;6061031;23;20018;-74
2024/04/03 10:26:46;;;;;;;9.30;6.63;;;;;;;7.58;100.00;100585.84;6036656;23;20024;-74
2024/04/03 10:29:12;;;;;;;8.95;6.30;;;;;;;7.68;100.00;100591.25;6060367;23;20093;-74
2024/04/03 10:31:38;;;;;;;10.82;6.70;;;;;;;7.72;100.00;100584.34;6059655;23;20052;-74
2024/04/03 10:34:04;;;;;;;10.68;6.35;;;;;;;7.71;100.00;100582.75;6085202;23;20025;-74
2024/04/03 10:36:30;;;;;;;11.75;6.75;;;;;;;7.68;100.00;100583.25;6060078;23;20014;-74
2024/04/03 10:38:57;;;;;;;8.95;6.00;;;;;;;7.87;100.00;100586.34;6083579;23;20018;-74
2024/04/03 10:41:23;;;;;;;10.98;6.75;;;;;;;7.96;100.00;100584.00;6060313;23;20023;-74
2024/04/03 10:43:49;;;;;;;10.65;7.28;;;;;;;8.05;100.00;100583.25;6035467;23;20029;-74
2024/04/03 10:46:25;;;;;;;9.85;6.43;;;;;;;8.11;100.00;100582.25;6083364;23;20169;-74
2024/04/03 10:48:55;;;;;;;10.60;6.88;;;;;;;8.15;100.00;100585.22;6083635;23;20014;-73
2024/04/03 10:51:21;;;;;;;9.60;6.75;;;;;;;8.12;100.00;100572.38;6061000;23;20022;-74
2024/04/03 10:53:49;;;;;;;10.65;7.18;;;;;;;8.27;100.00;100577.03;6060089;23;20026;-74
2024/04/03 10:56:16;;;;;;;13.85;7.88;;;;;;;8.26;100.00;100584.19;6060137;23;20014;-73
2024/04/03 10:58:44;;;;;;;10.63;7.35;;;;;;;8.26;100.00;100578.06;6083872;23;20015;-74
2024/04/03 11:01:11;;;;;;;10.48;6.43;;;;;;;8.34;100.00;100583.75;6061223;23;20334;-73
2024/04/03 11:03:39;;;;;;;12.48;7.60;;;;;;;8.28;100.00;100576.75;6060014;23;20105;-73
2024/04/03 11:06:05;;;;;;;10.50;6.53;;;;;;;8.38;100.00;100578.69;6034979;23;20073;-74
2024/04/03 11:08:31;;;;;;;10.95;6.75;;;;;;;8.48;100.00;100578.78;6036232;23;20065;-73
2024/04/03 11:11:10;;;;;;;10.35;7.28;;;;;;;8.47;100.00;100580.63;6086657;23;20022;-72
2024/04/03 11:13:37;;;;;;;9.48;6.45;;;;;;;8.47;100.00;100585.19;6060821;23;20029;-73
2024/04/03 11:16:10;;;;;;;9.68;6.40;;;;;;;8.42;100.00;100580.59;6059749;23;20015;-72
2024/04/03 11:18:36;;;;;;;10.07;6.90;;;;;;;8.37;100.00;100583.25;6083805;23;20445;-73
2024/04/03 11:21:05;;;;;;;10.95;7.22;;;;;;;8.25;100.00;100577.25;6035532;23;20022;-73
2024/04/03 11:23:39;;;;;;;10.57;6.93;;;;;;;8.25;100.00;100577.25;6080985;23;20520;-73